首页
METAR-TAF:

METAR-TAF

机场 :

梅赫拉巴德國際機場

德黑兰, 伊朗

纬度: 35-41N, 经度: 051-21E, 海拔: 1204米

当前天气观测

该预报发布于22分钟前的11:00 UTC
风速4节,风向南转南东
温度 11°C
湿度 58%
气压 1022 hPa
能见度10公里或以上
少量云层高于3500英尺, 积雨云.
散云层高于4000英尺
阴天层高于9000英尺

METAR: OIII 151100Z 15004KT 9999 FEW035CB SCT040 OVC090 11/03 Q1022 A3018 NOSIG

时间: 14:52 (11:22 UTC)

预报

该预报发布于5小时和42分钟前的05:40 UTC
预报有效从15日的 06点(UTC)到 16日的 12点(UTC)
风速8节,风向东南
能見度: 8000
少量云层高于3500英尺
多云层高于10000英尺
短暂存在
从 15日的 06点(UTC)到 15日的 10点(UTC)
能見度: 4000
少量云层高于3500英尺, 积雨云.
散云层高于4000英尺
阴天层高于9000英尺
成为
从 15日的 16点(UTC)到 15日的 18点(UTC)
少量云层高于3500英尺, 积雨云.
散云层高于4000英尺
多云层高于10000英尺
短暂存在
从 15日的 18点(UTC)到 16日的 12点(UTC)
能見度: 3000
少量云层高于3000英尺, 积雨云.
散云层高于3500英尺
阴天层高于10000英尺
雨, 轻雾

TAF: OIII 150540Z 1506/1612 14004MPS 8000 FEW035 BKN100 TEMPO 1506/1510 4000 RA FEW035CB SCT040 OVC090 BECMG 1516/1518 FEW035CB SCT040 BKN100 TEMPO 1518/1612 3000 RA BR FEW030CB SCT035 OVC100

超过4000个机场的气象观测和天气预报(METAR&TAF报告)。

可查询的气象台以黄色和红色小点在地图上表示。

将鼠标移到小点上方,可查看气象台名称。

然后点击查看天气观测和预报。

如需切换地图:点击带黑十字的绿色按钮放大地图;点击带横线的绿色按钮缩小地图;或者点击绿色箭头查看邻近地区的地图。


METAR-TAF: